createdAt,value
2023-11-19T00:01:23.395Z,39.78
2023-11-19T00:04:09.006Z,39.42
2023-11-19T00:06:54.348Z,39.63
2023-11-19T00:09:39.827Z,39.60
2023-11-19T00:12:25.120Z,39.86
2023-11-19T00:15:10.131Z,39.68
2023-11-19T00:17:55.865Z,39.65
2023-11-19T00:20:41.637Z,39.54
2023-11-19T00:23:26.494Z,39.80
2023-11-19T00:26:11.589Z,39.55
2023-11-19T00:28:56.539Z,39.70
2023-11-19T00:31:41.626Z,39.61
2023-11-19T00:34:27.071Z,39.88
2023-11-19T00:37:12.591Z,39.69
2023-11-19T00:39:58.157Z,39.71
2023-11-19T00:42:43.086Z,39.85
2023-11-19T00:45:28.043Z,39.72
2023-11-19T00:48:12.986Z,39.59
2023-11-19T00:50:57.985Z,39.83
2023-11-19T00:53:42.832Z,39.58
2023-11-19T00:56:27.786Z,39.86
2023-11-19T00:59:12.777Z,39.72
2023-11-19T01:01:57.966Z,39.90
2023-11-19T01:04:43.102Z,39.79
2023-11-19T01:07:28.376Z,39.88
2023-11-19T01:10:13.891Z,39.66
2023-11-19T01:12:58.785Z,39.73
2023-11-19T01:15:43.994Z,39.61
2023-11-19T01:18:29.038Z,39.75
2023-11-19T01:21:13.958Z,39.71
2023-11-19T01:23:59.438Z,39.85
2023-11-19T01:26:44.448Z,39.88
2023-11-19T01:29:29.855Z,39.87
2023-11-19T01:32:14.690Z,39.73
2023-11-19T01:34:59.641Z,39.71
2023-11-19T01:37:44.881Z,39.60
2023-11-19T01:40:29.819Z,39.77
2023-11-19T01:43:15.356Z,39.78
2023-11-19T01:46:00.820Z,39.85
2023-11-19T01:48:46.273Z,39.74
2023-11-19T01:51:31.146Z,39.93
2023-11-19T01:54:16.022Z,39.88
2023-11-19T01:57:00.897Z,39.73
2023-11-19T01:59:46.313Z,39.72
2023-11-19T02:02:31.662Z,39.68
2023-11-19T02:05:16.826Z,39.82
2023-11-19T02:08:01.938Z,39.67
2023-11-19T02:10:46.747Z,39.81
2023-11-19T02:13:31.701Z,39.96
2023-11-19T02:16:17.224Z,39.67
2023-11-19T02:19:02.825Z,40.05
2023-11-19T02:21:47.936Z,39.69
2023-11-19T02:24:32.747Z,39.84
2023-11-19T02:27:17.719Z,39.88
2023-11-19T02:30:02.666Z,39.73
2023-11-19T02:32:47.984Z,39.73
2023-11-19T02:35:33.133Z,39.74
2023-11-19T02:38:18.145Z,39.63
2023-11-19T02:41:03.023Z,39.82
2023-11-19T02:43:48.090Z,39.88
2023-11-19T02:46:33.229Z,39.97
2023-11-19T02:49:18.760Z,40.10
2023-11-19T02:52:04.112Z,39.68
2023-11-19T02:54:48.931Z,39.75
2023-11-19T02:57:33.867Z,39.82
2023-11-19T03:00:19.040Z,40.02
2023-11-19T03:03:04.168Z,39.76
2023-11-19T03:05:49.566Z,39.92
2023-11-19T03:08:34.498Z,39.79
2023-11-19T03:11:19.528Z,40.06
2023-11-19T03:14:04.521Z,40.04
2023-11-19T03:16:50.169Z,39.83
2023-11-19T03:19:35.413Z,39.70
2023-11-19T03:22:20.242Z,40.09
2023-11-19T03:25:05.875Z,39.88
2023-11-19T03:27:51.057Z,39.94
2023-11-19T03:30:36.059Z,39.92
2023-11-19T03:33:21.023Z,40.02
2023-11-19T03:36:06.426Z,39.67
2023-11-19T03:38:51.321Z,39.65
2023-11-19T03:44:24.228Z,39.90
2023-11-19T03:47:09.242Z,39.73
2023-11-19T03:49:54.741Z,39.72
2023-11-19T03:55:27.575Z,39.69
2023-11-19T03:58:12.552Z,39.82
2023-11-19T04:00:57.723Z,39.72
2023-11-19T04:06:30.991Z,40.02
2023-11-19T04:09:15.988Z,40.06
2023-11-19T04:12:01.241Z,39.88
2023-11-19T04:14:46.221Z,40.12
2023-11-19T04:17:31.612Z,39.97
2023-11-19T04:20:17.206Z,39.95
2023-11-19T04:23:02.374Z,39.77
2023-11-19T04:25:47.366Z,40.08
2023-11-19T04:28:32.188Z,39.95
2023-11-19T04:31:17.294Z,39.84
2023-11-19T04:34:02.611Z,40.07
2023-11-19T04:36:48.097Z,40.05
2023-11-19T04:39:32.983Z,39.88
2023-11-19T04:42:17.862Z,40.05
2023-11-19T04:45:03.203Z,40.09
2023-11-19T04:47:48.360Z,40.10
2023-11-19T04:50:33.253Z,40.19
2023-11-19T04:53:18.187Z,40.17
2023-11-19T04:56:03.172Z,39.89
2023-11-19T04:58:48.239Z,39.89
2023-11-19T05:01:33.664Z,40.11
2023-11-19T05:04:19.054Z,40.07
2023-11-19T05:07:04.348Z,40.08
2023-11-19T05:09:49.302Z,39.93
2023-11-19T05:12:34.338Z,39.77
2023-11-19T05:15:19.325Z,39.98
2023-11-19T05:18:04.656Z,39.97
2023-11-19T05:20:50.154Z,40.05
2023-11-19T05:23:35.251Z,39.82
2023-11-19T05:26:20.182Z,40.02
2023-11-19T05:29:04.972Z,39.95
2023-11-19T05:31:50.097Z,40.10
2023-11-19T05:34:35.580Z,40.05
2023-11-19T05:37:20.674Z,40.13
2023-11-19T05:40:05.929Z,39.88
2023-11-19T05:42:51.437Z,39.98
2023-11-19T05:45:36.690Z,39.74
2023-11-19T05:48:21.668Z,40.02
2023-11-19T05:51:07.009Z,39.94
2023-11-19T05:53:52.366Z,39.78
2023-11-19T05:56:37.366Z,39.92
2023-11-19T05:59:22.586Z,39.76
2023-11-19T06:02:07.687Z,39.80
2023-11-19T06:04:52.634Z,40.04
2023-11-19T06:07:37.871Z,39.95
2023-11-19T06:10:23.297Z,40.08
2023-11-19T06:13:08.121Z,39.96
2023-11-19T06:15:53.029Z,39.94
2023-11-19T06:18:38.277Z,40.06
2023-11-19T06:21:23.888Z,39.77
2023-11-19T06:24:09.077Z,39.76
2023-11-19T06:26:53.941Z,40.02
2023-11-19T06:29:38.807Z,39.95
2023-11-19T06:32:23.869Z,40.07
2023-11-19T06:35:08.751Z,40.09
2023-11-19T06:37:53.680Z,39.92
2023-11-19T06:40:38.974Z,40.06
2023-11-19T06:43:24.317Z,39.95
2023-11-19T06:46:09.701Z,39.82
2023-11-19T06:48:54.607Z,40.00
2023-11-19T06:51:39.689Z,39.66
2023-11-19T06:54:24.612Z,39.94
2023-11-19T06:57:09.732Z,39.92
2023-11-19T06:59:54.802Z,39.83
2023-11-19T07:02:40.084Z,39.92
2023-11-19T07:05:25.549Z,39.69
2023-11-19T07:08:10.929Z,39.80
2023-11-19T07:10:55.975Z,39.84
2023-11-19T07:13:41.119Z,39.84
2023-11-19T07:16:26.039Z,39.55
2023-11-19T07:19:11.094Z,39.68
2023-11-19T07:21:55.927Z,39.69
2023-11-19T07:24:40.950Z,39.64
2023-11-19T07:27:26.224Z,39.83
2023-11-19T07:30:11.787Z,39.87
2023-11-19T07:32:56.800Z,39.73
2023-11-19T07:35:41.863Z,39.68
2023-11-19T07:38:27.258Z,39.83
2023-11-19T07:41:12.396Z,39.75
2023-11-19T07:43:57.486Z,39.68
2023-11-19T07:46:42.688Z,39.90
2023-11-19T07:49:28.202Z,39.71
2023-11-19T07:55:01.080Z,39.72
2023-11-19T07:57:46.081Z,39.82
2023-11-19T08:00:30.919Z,39.78
2023-11-19T08:03:16.152Z,39.66
2023-11-19T08:06:01.425Z,39.56
2023-11-19T08:08:46.288Z,39.70
2023-11-19T08:11:31.361Z,39.91
2023-11-19T08:14:16.702Z,39.75
2023-11-19T08:17:01.694Z,39.86
2023-11-19T08:19:46.871Z,39.86
2023-11-19T08:22:32.096Z,39.98
2023-11-19T08:25:16.933Z,39.96
2023-11-19T08:28:01.914Z,39.83
2023-11-19T08:30:46.891Z,39.86
2023-11-19T08:33:31.821Z,39.97
2023-11-19T08:36:17.134Z,39.62
2023-11-19T08:39:02.042Z,39.74
2023-11-19T08:41:47.552Z,39.91
2023-11-19T08:44:32.441Z,39.98
2023-11-19T08:47:17.378Z,39.81
2023-11-19T08:50:04.173Z,39.88
2023-11-19T08:52:50.061Z,39.83
2023-11-19T08:55:35.216Z,39.82
2023-11-19T08:58:20.620Z,39.75
2023-11-19T09:01:05.562Z,39.70
2023-11-19T09:03:51.221Z,39.80
2023-11-19T09:06:36.432Z,39.73
2023-11-19T09:09:21.492Z,39.76
2023-11-19T09:12:06.362Z,39.80
2023-11-19T09:14:51.334Z,39.89
2023-11-19T09:17:36.798Z,39.72
2023-11-19T09:20:22.129Z,39.82
2023-11-19T09:23:07.109Z,39.58
2023-11-19T09:25:52.064Z,39.87
2023-11-19T09:28:37.327Z,39.59
2023-11-19T09:31:22.447Z,39.92
2023-11-19T09:36:51.820Z,39.94
2023-11-19T09:39:36.918Z,39.71
2023-11-19T09:42:21.806Z,39.63
2023-11-19T09:45:06.817Z,39.63
2023-11-19T09:47:52.070Z,39.87
2023-11-19T09:50:37.312Z,39.69
2023-11-19T09:53:22.850Z,39.67
2023-11-19T09:56:08.416Z,39.64
2023-11-19T09:58:53.813Z,39.58
2023-11-19T10:01:38.837Z,39.75
2023-11-19T10:04:24.413Z,39.67
2023-11-19T10:07:09.951Z,39.81
2023-11-19T10:09:55.224Z,39.78
2023-11-19T10:12:57.468Z,39.90
2023-11-19T10:15:43.556Z,39.81
2023-11-19T10:18:28.656Z,39.66
2023-11-19T10:21:13.617Z,39.91
2023-11-19T10:23:58.471Z,39.65
2023-11-19T10:26:43.957Z,39.66
2023-11-19T10:29:29.302Z,39.62
2023-11-19T10:32:25.131Z,39.87
2023-11-19T10:35:12.316Z,39.89
2023-11-19T10:37:57.849Z,39.84
2023-11-19T10:40:42.711Z,39.88
2023-11-19T10:43:27.824Z,39.64
2023-11-19T10:46:13.451Z,39.97
2023-11-19T10:48:58.641Z,39.96
2023-11-19T10:51:43.705Z,39.66
2023-11-19T10:54:29.086Z,39.68
2023-11-19T10:57:14.020Z,40.08
2023-11-19T10:59:59.087Z,39.80
2023-11-19T11:02:44.393Z,39.68
2023-11-19T11:05:29.843Z,39.79
2023-11-19T11:08:14.696Z,39.81
2023-11-19T11:10:59.556Z,40.00
2023-11-19T11:13:44.567Z,39.70
2023-11-19T11:16:29.676Z,39.64
2023-11-19T11:19:15.144Z,39.68
2023-11-19T11:22:00.107Z,39.87
2023-11-19T11:24:45.154Z,39.71
2023-11-19T11:27:30.651Z,39.82
2023-11-19T11:30:15.958Z,39.64
2023-11-19T11:33:01.011Z,39.68
2023-11-19T11:35:46.261Z,39.81
2023-11-19T11:38:31.630Z,39.58
2023-11-19T11:41:16.587Z,39.80
2023-11-19T11:44:01.602Z,39.60
2023-11-19T11:46:46.894Z,39.52
2023-11-19T11:49:32.211Z,39.78
2023-11-19T11:52:17.638Z,39.60
2023-11-19T11:55:02.521Z,39.70
2023-11-19T11:57:47.478Z,39.87
2023-11-19T12:00:34.943Z,39.79
2023-11-19T12:03:20.164Z,39.60
2023-11-19T12:06:04.923Z,39.68
2023-11-19T12:11:38.036Z,39.71
2023-11-19T12:14:24.295Z,39.81
2023-11-19T12:17:09.909Z,39.86
2023-11-19T12:19:55.425Z,39.96
2023-11-19T12:22:40.704Z,40.02
2023-11-19T12:25:26.429Z,39.88
2023-11-19T12:28:11.744Z,39.95
2023-11-19T12:30:56.787Z,39.90
2023-11-19T12:33:42.139Z,39.85
2023-11-19T12:36:27.720Z,39.65
2023-11-19T12:39:13.226Z,40.03
2023-11-19T12:41:58.621Z,39.70
2023-11-19T12:44:43.568Z,39.95
2023-11-19T12:47:29.064Z,40.00
2023-11-19T12:50:14.542Z,39.86
2023-11-19T12:52:59.544Z,39.97
2023-11-19T12:55:44.997Z,39.75
2023-11-19T12:58:30.084Z,39.84
2023-11-19T13:01:14.942Z,39.96
2023-11-19T13:04:00.510Z,39.78
2023-11-19T13:06:45.483Z,39.68
2023-11-19T13:09:30.832Z,39.69
2023-11-19T13:12:16.501Z,39.68
2023-11-19T13:15:01.619Z,39.66
2023-11-19T13:17:46.553Z,39.75
2023-11-19T13:20:31.383Z,39.92
2023-11-19T13:23:18.303Z,39.80
2023-11-19T13:26:04.157Z,39.64
2023-11-19T13:28:49.107Z,39.61
2023-11-19T13:31:34.118Z,39.97
2023-11-19T13:34:19.459Z,39.67
2023-11-19T13:37:04.896Z,39.87
2023-11-19T13:39:50.348Z,39.76
2023-11-19T13:42:35.830Z,39.71
2023-11-19T13:45:20.956Z,39.66
2023-11-19T13:48:05.896Z,39.74
2023-11-19T13:50:50.850Z,39.67
2023-11-19T13:56:23.698Z,39.84
2023-11-19T13:59:08.837Z,39.89
2023-11-19T14:01:54.268Z,39.90
2023-11-19T14:04:39.208Z,39.92
2023-11-19T14:07:24.654Z,39.92
2023-11-19T14:10:09.878Z,39.70
2023-11-19T14:12:55.285Z,39.74
2023-11-19T14:15:40.324Z,39.90
2023-11-19T14:18:25.705Z,39.92
2023-11-19T14:21:11.048Z,39.93
2023-11-19T14:23:56.136Z,39.93
2023-11-19T14:26:41.357Z,39.90
2023-11-19T14:29:26.678Z,40.00
2023-11-19T14:32:11.518Z,39.80
2023-11-19T14:34:56.828Z,39.89
2023-11-19T14:37:42.012Z,39.92
2023-11-19T14:43:15.147Z,39.79
2023-11-19T14:46:00.708Z,40.00
2023-11-19T14:48:46.037Z,40.02
2023-11-19T14:51:31.720Z,39.85
2023-11-19T14:54:17.108Z,40.06
2023-11-19T14:57:02.001Z,39.92
2023-11-19T14:59:47.532Z,39.88
2023-11-19T15:02:32.405Z,40.01
2023-11-19T15:05:17.389Z,40.10
2023-11-19T15:08:02.322Z,39.90
2023-11-19T15:10:47.369Z,39.98
2023-11-19T15:13:32.552Z,40.17
2023-11-19T15:16:17.643Z,40.17
2023-11-19T15:19:02.991Z,40.18
2023-11-19T15:21:47.879Z,39.93
2023-11-19T15:24:32.828Z,40.08
2023-11-19T15:27:17.689Z,39.99
2023-11-19T15:30:02.695Z,40.28
2023-11-19T15:32:47.734Z,39.92
2023-11-19T15:35:33.419Z,40.02
2023-11-19T15:38:18.785Z,39.96
2023-11-19T15:41:03.754Z,40.00
2023-11-19T15:43:49.291Z,40.07
2023-11-19T15:46:34.481Z,40.03
2023-11-19T15:49:19.519Z,40.27
2023-11-19T15:52:04.495Z,40.21
2023-11-19T15:54:49.872Z,39.95
2023-11-19T15:57:34.745Z,40.11
2023-11-19T16:00:20.178Z,40.11
2023-11-19T16:03:05.337Z,40.09
2023-11-19T16:06:01.402Z,40.08
2023-11-19T16:08:52.497Z,40.05
2023-11-19T16:11:47.568Z,40.20
2023-11-19T16:14:37.873Z,40.16
2023-11-19T16:17:23.268Z,40.22
2023-11-19T16:20:08.795Z,40.11
2023-11-19T16:22:53.967Z,40.23
2023-11-19T16:25:39.492Z,40.35
2023-11-19T16:28:24.907Z,40.18
2023-11-19T16:31:09.878Z,40.29
2023-11-19T16:33:55.343Z,40.06
2023-11-19T16:36:40.614Z,40.39
2023-11-19T16:39:25.927Z,40.32
2023-11-19T16:42:11.093Z,40.39
2023-11-19T16:44:56.037Z,40.12
2023-11-19T16:47:41.179Z,40.24
2023-11-19T16:50:26.496Z,40.23
2023-11-19T16:53:12.176Z,40.43
2023-11-19T16:55:57.142Z,40.40
2023-11-19T16:58:42.089Z,40.46
2023-11-19T17:01:27.070Z,40.32
2023-11-19T17:04:12.489Z,40.24
2023-11-19T17:06:58.161Z,40.25
2023-11-19T17:09:43.301Z,40.12
2023-11-19T17:12:28.222Z,40.34
2023-11-19T17:15:13.231Z,40.46
2023-11-19T17:17:58.283Z,40.19
2023-11-19T17:20:43.310Z,40.41
2023-11-19T17:23:28.299Z,40.23
2023-11-19T17:26:13.387Z,40.19
2023-11-19T17:28:58.520Z,40.21
2023-11-19T17:31:43.505Z,40.27
2023-11-19T17:34:28.374Z,40.48
2023-11-19T17:37:13.364Z,40.45
2023-11-19T17:39:58.464Z,40.29
2023-11-19T17:42:43.459Z,40.30
2023-11-19T17:45:28.723Z,40.55
2023-11-19T17:48:13.656Z,40.42
2023-11-19T17:50:58.938Z,40.41
2023-11-19T17:53:44.094Z,40.64
2023-11-19T17:56:29.167Z,40.18
2023-11-19T17:59:16.427Z,40.34
2023-11-19T18:02:02.289Z,40.50
2023-11-19T18:04:47.252Z,40.52
2023-11-19T18:07:32.221Z,40.55
2023-11-19T18:10:17.278Z,40.24
2023-11-19T18:13:02.543Z,40.42
2023-11-19T18:15:47.721Z,40.55
2023-11-19T18:18:32.821Z,40.37
2023-11-19T18:21:18.009Z,40.32
2023-11-19T18:24:02.920Z,40.34
2023-11-19T18:26:47.795Z,40.63
2023-11-19T18:29:33.301Z,40.47
2023-11-19T18:32:18.519Z,40.40
2023-11-19T18:35:04.019Z,40.43
2023-11-19T18:37:49.501Z,40.52
2023-11-19T18:40:34.379Z,40.58
2023-11-19T18:43:19.265Z,40.37
2023-11-19T18:46:04.745Z,40.57
2023-11-19T18:48:49.964Z,40.35
2023-11-19T18:51:35.167Z,40.23
2023-11-19T18:54:20.131Z,40.24
2023-11-19T18:57:05.156Z,40.23
2023-11-19T18:59:50.072Z,40.59
2023-11-19T19:02:35.299Z,40.51
2023-11-19T19:05:20.764Z,40.34
2023-11-19T19:08:06.106Z,40.35
2023-11-19T19:10:51.469Z,40.60
2023-11-19T19:13:36.372Z,40.58
2023-11-19T19:16:21.426Z,40.63
2023-11-19T19:19:06.301Z,40.27
2023-11-19T19:21:51.345Z,40.51
2023-11-19T19:24:36.440Z,40.59
2023-11-19T19:27:21.256Z,40.25
2023-11-19T19:30:06.261Z,40.30
2023-11-19T19:32:51.305Z,40.25
2023-11-19T19:35:36.787Z,40.27
2023-11-19T19:38:22.173Z,40.50
2023-11-19T19:41:07.812Z,40.52
2023-11-19T19:43:52.877Z,40.29
2023-11-19T19:46:37.893Z,40.36
2023-11-19T19:49:22.886Z,40.28
2023-11-19T19:52:07.864Z,40.47
2023-11-19T19:54:53.048Z,40.55
2023-11-19T19:57:38.074Z,40.53
2023-11-19T20:00:24.119Z,40.53
2023-11-19T20:03:09.692Z,40.30
2023-11-19T20:05:54.951Z,40.29
2023-11-19T20:08:40.003Z,40.60
2023-11-19T20:11:25.198Z,40.54
2023-11-19T20:14:10.308Z,40.24
2023-11-19T20:19:43.616Z,40.41
2023-11-19T20:22:28.682Z,40.52
2023-11-19T20:25:13.737Z,40.47
2023-11-19T20:27:58.981Z,40.31
2023-11-19T20:30:44.317Z,40.37
2023-11-19T20:33:29.666Z,40.61
2023-11-19T20:36:14.727Z,40.27
2023-11-19T20:38:59.641Z,40.35
2023-11-19T20:41:44.667Z,40.57
2023-11-19T20:44:29.643Z,40.50
2023-11-19T20:47:14.555Z,40.52
2023-11-19T20:49:59.485Z,40.43
2023-11-19T20:52:44.644Z,40.29
2023-11-19T20:55:31.715Z,40.29
2023-11-19T20:58:18.175Z,40.37
2023-11-19T21:01:03.366Z,40.56
2023-11-19T21:03:48.458Z,40.28
2023-11-19T21:06:54.698Z,40.54
2023-11-19T21:09:39.200Z,40.51
2023-11-19T21:12:24.644Z,40.31
2023-11-19T21:15:09.625Z,40.44
2023-11-19T21:17:54.704Z,40.34
2023-11-19T21:20:39.771Z,40.30
2023-11-19T21:23:24.637Z,40.28
2023-11-19T21:26:09.535Z,40.53
2023-11-19T21:28:54.596Z,40.29
2023-11-19T21:34:27.831Z,40.50
2023-11-19T21:37:12.893Z,40.60
2023-11-19T21:39:58.424Z,40.40
2023-11-19T21:42:44.037Z,40.51
2023-11-19T21:45:29.465Z,40.42
2023-11-19T21:48:14.901Z,40.36
2023-11-19T21:50:59.901Z,40.57
2023-11-19T21:53:44.885Z,40.58
2023-11-19T21:56:29.933Z,40.63
2023-11-19T21:59:14.846Z,40.40
2023-11-19T22:01:59.894Z,40.51
2023-11-19T22:04:44.944Z,40.61
2023-11-19T22:07:29.913Z,40.56
2023-11-19T22:10:15.360Z,40.60
2023-11-19T22:13:00.899Z,40.46
2023-11-19T22:15:45.968Z,40.56
2023-11-19T22:18:31.384Z,40.32
2023-11-19T22:21:16.465Z,40.38
2023-11-19T22:24:01.601Z,40.45
2023-11-19T22:26:46.583Z,40.32
2023-11-19T22:29:32.617Z,40.34
2023-11-19T22:35:05.718Z,40.67
2023-11-19T22:37:50.938Z,40.63
2023-11-19T22:40:36.484Z,40.59
2023-11-19T22:43:21.520Z,40.63
2023-11-19T22:46:06.426Z,40.55
2023-11-19T22:48:51.453Z,40.30
2023-11-19T22:51:36.840Z,40.32
2023-11-19T22:54:22.389Z,40.57
2023-11-19T22:57:07.404Z,40.26
2023-11-19T22:59:52.465Z,40.57
2023-11-19T23:02:37.582Z,40.33
2023-11-19T23:05:22.995Z,40.36
2023-11-19T23:08:08.600Z,40.55
2023-11-19T23:10:53.563Z,40.33
2023-11-19T23:13:38.593Z,40.41
2023-11-19T23:16:24.289Z,40.63
2023-11-19T23:19:09.566Z,40.58
2023-11-19T23:21:54.563Z,40.49
2023-11-19T23:24:39.459Z,40.45
2023-11-19T23:27:24.538Z,40.69
2023-11-19T23:30:09.579Z,40.68
2023-11-19T23:32:54.305Z,40.48
2023-11-19T23:35:39.652Z,40.63
2023-11-19T23:38:24.569Z,40.43
2023-11-19T23:41:09.745Z,40.63
2023-11-19T23:43:55.247Z,40.80
2023-11-19T23:46:40.729Z,40.70
2023-11-19T23:49:26.136Z,40.72
2023-11-19T23:52:11.527Z,40.63
2023-11-19T23:54:56.488Z,40.55
2023-11-19T23:57:41.607Z,40.48
